<?xml version="1.0" encoding="UTF-8" standalone="no" ?>
<gpx xmlns="http://www.topografix.com/GPX/1/1" xmlns:xsi="http://www.w3.org/2001/XMLSchema-instance" xsi:schemaLocation="http://www.topografix.com/GPX/1/1 http://www.topografix.com/GPX/1/1/gpx.xsd" version="1.1" creator="VisuGPX - https://www.visugpx.com">
  <metadata>
    <name>la grotte d'Eaux Chaudes depuis le village - Vallée d'Ossau (64)</name>
    <desc><![CDATA[itinéraire depuis le village et retour]]></desc>
  </metadata>
  <wpt lat="42.94447" lon="-0.43877">
    <ele>792.246338</ele>
    <name><![CDATA[001]]></name>
    <desc><![CDATA[31-JUL-11 14:48:34]]></desc>
  </wpt>
  <wpt lat="42.9341" lon="-0.44048">
    <ele>1001.091064</ele>
    <name><![CDATA[Grotte DEaux C]]></name>
    <desc><![CDATA[Grotte DEaux Chaudes 1000m]]></desc>
  </wpt>
  <trk>
    <name><![CDATA[ACTIVE LOG 002]]></name>
    <trkseg>
      <trkpt lat="42.95229" lon="-0.44038">
        <ele>626.436279</ele>
        <time>2011-07-31T09:12:29Z</time>
      </trkpt>
      <trkpt lat="42.95198" lon="-0.44063">
        <ele>626.436279</ele>
        <time>2011-07-31T09:12:39Z</time>
      </trkpt>
      <trkpt lat="42.95195" lon="-0.44065">
        <ele>629.800781</ele>
        <time>2011-07-31T09:12:44Z</time>
      </trkpt>
      <trkpt lat="42.95194" lon="-0.44061">
        <ele>633.645996</ele>
        <time>2011-07-31T09:12:47Z</time>
      </trkpt>
      <trkpt lat="42.95192" lon="-0.4406">
        <ele>636.049561</ele>
        <time>2011-07-31T09:12:50Z</time>
      </trkpt>
      <trkpt lat="42.95185" lon="-0.44064">
        <ele>639.894775</ele>
        <time>2011-07-31T09:12:55Z</time>
      </trkpt>
      <trkpt lat="42.95178" lon="-0.4407">
        <ele>643.259277</ele>
        <time>2011-07-31T09:13:00Z</time>
      </trkpt>
      <trkpt lat="42.95172" lon="-0.44074">
        <ele>646.624023</ele>
        <time>2011-07-31T09:13:05Z</time>
      </trkpt>
      <trkpt lat="42.95168" lon="-0.44076">
        <ele>648.546387</ele>
        <time>2011-07-31T09:13:09Z</time>
      </trkpt>
      <trkpt lat="42.95165" lon="-0.44075">
        <ele>650.469238</ele>
        <time>2011-07-31T09:13:13Z</time>
      </trkpt>
      <trkpt lat="42.9515" lon="-0.44077">
        <ele>651.911133</ele>
        <time>2011-07-31T09:13:30Z</time>
      </trkpt>
      <trkpt lat="42.95138" lon="-0.44077">
        <ele>652.391846</ele>
        <time>2011-07-31T09:13:42Z</time>
      </trkpt>
      <trkpt lat="42.95126" lon="-0.44074">
        <ele>653.353271</ele>
        <time>2011-07-31T09:13:59Z</time>
      </trkpt>
      <trkpt lat="42.9512" lon="-0.44075">
        <ele>649.507812</ele>
        <time>2011-07-31T09:14:06Z</time>
      </trkpt>
      <trkpt lat="42.95117" lon="-0.44081">
        <ele>645.181885</ele>
        <time>2011-07-31T09:14:09Z</time>
      </trkpt>
      <trkpt lat="42.95116" lon="-0.44083">
        <ele>645.181885</ele>
        <time>2011-07-31T09:14:10Z</time>
      </trkpt>
      <trkpt lat="42.95113" lon="-0.44088">
        <ele>642.298096</ele>
        <time>2011-07-31T09:14:13Z</time>
      </trkpt>
      <trkpt lat="42.95109" lon="-0.44099">
        <ele>638.452881</ele>
        <time>2011-07-31T09:14:21Z</time>
      </trkpt>
      <trkpt lat="42.95094" lon="-0.44124">
        <ele>638.933594</ele>
        <time>2011-07-31T09:14:37Z</time>
      </trkpt>
      <trkpt lat="42.95078" lon="-0.44135">
        <ele>637.491455</ele>
        <time>2011-07-31T09:14:50Z</time>
      </trkpt>
      <trkpt lat="42.95075" lon="-0.44138">
        <ele>642.298096</ele>
        <time>2011-07-31T09:14:53Z</time>
      </trkpt>
      <trkpt lat="42.95074" lon="-0.44138">
        <ele>638.452881</ele>
        <time>2011-07-31T09:14:54Z</time>
      </trkpt>
      <trkpt lat="42.95073" lon="-0.44139">
        <ele>641.817383</ele>
        <time>2011-07-31T09:14:55Z</time>
      </trkpt>
      <trkpt lat="42.95064" lon="-0.44147">
        <ele>641.33667</ele>
        <time>2011-07-31T09:15:03Z</time>
      </trkpt>
      <trkpt lat="42.95052" lon="-0.44162">
        <ele>641.817383</ele>
        <time>2011-07-31T09:15:16Z</time>
      </trkpt>
      <trkpt lat="42.95052" lon="-0.44165">
        <ele>638.933594</ele>
        <time>2011-07-31T09:15:18Z</time>
      </trkpt>
      <trkpt lat="42.95052" lon="-0.44167">
        <ele>641.33667</ele>
        <time>2011-07-31T09:15:19Z</time>
      </trkpt>
      <trkpt lat="42.95051" lon="-0.4417">
        <ele>642.778809</ele>
        <time>2011-07-31T09:15:21Z</time>
      </trkpt>
      <trkpt lat="42.95038" lon="-0.442">
        <ele>643.259277</ele>
        <time>2011-07-31T09:15:43Z</time>
      </trkpt>
      <trkpt lat="42.95019" lon="-0.44216">
        <ele>643.259277</ele>
        <time>2011-07-31T09:16:01Z</time>
      </trkpt>
      <trkpt lat="42.95014" lon="-0.44223">
        <ele>642.778809</ele>
        <time>2011-07-31T09:16:16Z</time>
      </trkpt>
      <trkpt lat="42.95001" lon="-0.44228">
        <ele>644.701172</ele>
        <time>2011-07-31T09:16:26Z</time>
      </trkpt>
      <trkpt lat="42.94987" lon="-0.44233">
        <ele>647.104492</ele>
        <time>2011-07-31T09:16:39Z</time>
      </trkpt>
      <trkpt lat="42.94983" lon="-0.44235">
        <ele>648.546387</ele>
        <time>2011-07-31T09:16:43Z</time>
      </trkpt>
      <trkpt lat="42.94971" lon="-0.44237">
        <ele>649.988525</ele>
        <time>2011-07-31T09:16:55Z</time>
      </trkpt>
      <trkpt lat="42.94958" lon="-0.4426">
        <ele>651.911133</ele>
        <time>2011-07-31T09:17:08Z</time>
      </trkpt>
      <trkpt lat="42.94937" lon="-0.44261">
        <ele>654.795166</ele>
        <time>2011-07-31T09:17:22Z</time>
      </trkpt>
      <trkpt lat="42.94931" lon="-0.44262">
        <ele>655.756592</ele>
        <time>2011-07-31T09:17:26Z</time>
      </trkpt>
      <trkpt lat="42.94922" lon="-0.44262">
        <ele>657.198486</ele>
        <time>2011-07-31T09:17:32Z</time>
      </trkpt>
      <trkpt lat="42.94902" lon="-0.4426">
        <ele>659.121094</ele>
        <time>2011-07-31T09:17:45Z</time>
      </trkpt>
      <trkpt lat="42.94902" lon="-0.4425">
        <ele>661.043701</ele>
        <time>2011-07-31T09:17:51Z</time>
      </trkpt>
      <trkpt lat="42.94897" lon="-0.44233">
        <ele>662.485596</ele>
        <time>2011-07-31T09:18:03Z</time>
      </trkpt>
      <trkpt lat="42.94898" lon="-0.44231">
        <ele>663.447021</ele>
        <time>2011-07-31T09:18:05Z</time>
      </trkpt>
      <trkpt lat="42.94906" lon="-0.44228">
        <ele>663.92749</ele>
        <time>2011-07-31T09:18:14Z</time>
      </trkpt>
      <trkpt lat="42.94908" lon="-0.44228">
        <ele>664.408203</ele>
        <time>2011-07-31T09:18:16Z</time>
      </trkpt>
      <trkpt lat="42.94925" lon="-0.44224">
        <ele>666.330811</ele>
        <time>2011-07-31T09:18:31Z</time>
      </trkpt>
      <trkpt lat="42.94943" lon="-0.44215">
        <ele>666.811523</ele>
        <time>2011-07-31T09:18:42Z</time>
      </trkpt>
      <trkpt lat="42.94955" lon="-0.4421">
        <ele>667.772705</ele>
        <time>2011-07-31T09:18:54Z</time>
      </trkpt>
      <trkpt lat="42.9497" lon="-0.44198">
        <ele>669.215088</ele>
        <time>2011-07-31T09:19:07Z</time>
      </trkpt>
      <trkpt lat="42.94974" lon="-0.44194">
        <ele>669.215088</ele>
        <time>2011-07-31T09:19:10Z</time>
      </trkpt>
      <trkpt lat="42.94988" lon="-0.44173">
        <ele>670.656982</ele>
        <time>2011-07-31T09:19:20Z</time>
      </trkpt>
      <trkpt lat="42.94992" lon="-0.4416">
        <ele>672.098877</ele>
        <time>2011-07-31T09:19:32Z</time>
      </trkpt>
      <trkpt lat="42.94983" lon="-0.44152">
        <ele>674.021484</ele>
        <time>2011-07-31T09:19:42Z</time>
      </trkpt>
      <trkpt lat="42.94972" lon="-0.44145">
        <ele>674.502197</ele>
        <time>2011-07-31T09:19:53Z</time>
      </trkpt>
      <trkpt lat="42.94971" lon="-0.44145">
        <ele>674.98291</ele>
        <time>2011-07-31T09:19:54Z</time>
      </trkpt>
      <trkpt lat="42.94952" lon="-0.44154">
        <ele>676.905518</ele>
        <time>2011-07-31T09:20:11Z</time>
      </trkpt>
      <trkpt lat="42.94931" lon="-0.44156">
        <ele>679.308594</ele>
        <time>2011-07-31T09:20:25Z</time>
      </trkpt>
      <trkpt lat="42.94923" lon="-0.44152">
        <ele>680.27002</ele>
        <time>2011-07-31T09:20:31Z</time>
      </trkpt>
      <trkpt lat="42.94921" lon="-0.44145">
        <ele>679.789307</ele>
        <time>2011-07-31T09:20:35Z</time>
      </trkpt>
      <trkpt lat="42.94916" lon="-0.44134">
        <ele>681.231445</ele>
        <time>2011-07-31T09:20:44Z</time>
      </trkpt>
      <trkpt lat="42.94918" lon="-0.44116">
        <ele>683.153809</ele>
        <time>2011-07-31T09:20:54Z</time>
      </trkpt>
      <trkpt lat="42.9493" lon="-0.44092">
        <ele>683.634521</ele>
        <time>2011-07-31T09:21:05Z</time>
      </trkpt>
      <trkpt lat="42.94932" lon="-0.44088">
        <ele>684.596191</ele>
        <time>2011-07-31T09:21:07Z</time>
      </trkpt>
      <trkpt lat="42.94943" lon="-0.44073">
        <ele>685.557373</ele>
        <time>2011-07-31T09:21:16Z</time>
      </trkpt>
      <trkpt lat="42.94971" lon="-0.44037">
        <ele>686.999268</ele>
        <time>2011-07-31T09:21:37Z</time>
      </trkpt>
      <trkpt lat="42.94981" lon="-0.44029">
        <ele>687.47998</ele>
        <time>2011-07-31T09:21:47Z</time>
      </trkpt>
      <trkpt lat="42.94993" lon="-0.44014">
        <ele>689.402588</ele>
        <time>2011-07-31T09:22:03Z</time>
      </trkpt>
      <trkpt lat="42.95004" lon="-0.44006">
        <ele>689.883301</ele>
        <time>2011-07-31T09:22:12Z</time>
      </trkpt>
      <trkpt lat="42.95012" lon="-0.44002">
        <ele>691.805908</ele>
        <time>2011-07-31T09:22:24Z</time>
      </trkpt>
      <trkpt lat="42.95018" lon="-0.43998">
        <ele>693.728516</ele>
        <time>2011-07-31T09:22:31Z</time>
      </trkpt>
      <trkpt lat="42.9503" lon="-0.43984">
        <ele>695.17041</ele>
        <time>2011-07-31T09:22:41Z</time>
      </trkpt>
      <trkpt lat="42.95044" lon="-0.43964">
        <ele>695.651123</ele>
        <time>2011-07-31T09:22:51Z</time>
      </trkpt>
      <trkpt lat="42.9504" lon="-0.43961">
        <ele>696.612549</ele>
        <time>2011-07-31T09:22:59Z</time>
      </trkpt>
      <trkpt lat="42.95034" lon="-0.43964">
        <ele>697.57373</ele>
        <time>2011-07-31T09:23:04Z</time>
      </trkpt>
      <trkpt lat="42.95016" lon="-0.43988">
        <ele>700.458008</ele>
        <time>2011-07-31T09:23:17Z</time>
      </trkpt>
      <trkpt lat="42.95" lon="-0.43996">
        <ele>702.380371</ele>
        <time>2011-07-31T09:23:29Z</time>
      </trkpt>
      <trkpt lat="42.94996" lon="-0.43997">
        <ele>702.861084</ele>
        <time>2011-07-31T09:23:32Z</time>
      </trkpt>
      <trkpt lat="42.94982" lon="-0.43998">
        <ele>704.303223</ele>
        <time>2011-07-31T09:23:44Z</time>
      </trkpt>
      <trkpt lat="42.94969" lon="-0.44007">
        <ele>706.225586</ele>
        <time>2011-07-31T09:23:55Z</time>
      </trkpt>
      <trkpt lat="42.94958" lon="-0.44015">
        <ele>709.590332</ele>
        <time>2011-07-31T09:24:04Z</time>
      </trkpt>
      <trkpt lat="42.94949" lon="-0.44018">
        <ele>711.512939</ele>
        <time>2011-07-31T09:24:15Z</time>
      </trkpt>
      <trkpt lat="42.94938" lon="-0.44023">
        <ele>713.435547</ele>
        <time>2011-07-31T09:24:27Z</time>
      </trkpt>
      <trkpt lat="42.94935" lon="-0.44025">
        <ele>715.358154</ele>
        <time>2011-07-31T09:24:32Z</time>
      </trkpt>
      <trkpt lat="42.94922" lon="-0.44024">
        <ele>717.761475</ele>
        <time>2011-07-31T09:24:45Z</time>
      </trkpt>
      <trkpt lat="42.94915" lon="-0.44022">
        <ele>718.7229</ele>
        <time>2011-07-31T09:24:54Z</time>
      </trkpt>
      <trkpt lat="42.94915" lon="-0.44021">
        <ele>719.203613</ele>
        <time>2011-07-31T09:24:55Z</time>
      </trkpt>
      <trkpt lat="42.94904" lon="-0.44025">
        <ele>721.126221</ele>
        <time>2011-07-31T09:25:07Z</time>
      </trkpt>
      <trkpt lat="42.9489" lon="-0.44035">
        <ele>724.01001</ele>
        <time>2011-07-31T09:25:18Z</time>
      </trkpt>
      <trkpt lat="42.94877" lon="-0.44042">
        <ele>726.894043</ele>
        <time>2011-07-31T09:25:31Z</time>
      </trkpt>
      <trkpt lat="42.94869" lon="-0.4404">
        <ele>728.335938</ele>
        <time>2011-07-31T09:25:42Z</time>
      </trkpt>
      <trkpt lat="42.94858" lon="-0.44039">
        <ele>730.739258</ele>
        <time>2011-07-31T09:25:53Z</time>
      </trkpt>
      <trkpt lat="42.94849" lon="-0.4404">
        <ele>733.623291</ele>
        <time>2011-07-31T09:26:01Z</time>
      </trkpt>
      <trkpt lat="42.94837" lon="-0.44047">
        <ele>735.545898</ele>
        <time>2011-07-31T09:26:12Z</time>
      </trkpt>
      <trkpt lat="42.94819" lon="-0.44054">
        <ele>736.987793</ele>
        <time>2011-07-31T09:26:27Z</time>
      </trkpt>
      <trkpt lat="42.94806" lon="-0.44052">
        <ele>739.871826</ele>
        <time>2011-07-31T09:26:39Z</time>
      </trkpt>
      <trkpt lat="42.94795" lon="-0.44051">
        <ele>740.352539</ele>
        <time>2011-07-31T09:26:49Z</time>
      </trkpt>
      <trkpt lat="42.94785" lon="-0.44058">
        <ele>742.275146</ele>
        <time>2011-07-31T09:27:01Z</time>
      </trkpt>
      <trkpt lat="42.94769" lon="-0.4406">
        <ele>743.717041</ele>
        <time>2011-07-31T09:27:15Z</time>
      </trkpt>
      <trkpt lat="42.94756" lon="-0.44061">
        <ele>746.120361</ele>
        <time>2011-07-31T09:27:26Z</time>
      </trkpt>
      <trkpt lat="42.94742" lon="-0.44066">
        <ele>748.043213</ele>
        <time>2011-07-31T09:27:39Z</time>
      </trkpt>
      <trkpt lat="42.94736" lon="-0.44063">
        <ele>750.927002</ele>
        <time>2011-07-31T09:27:48Z</time>
      </trkpt>
      <trkpt lat="42.94734" lon="-0.44063">
        <ele>750.927002</ele>
        <time>2011-07-31T09:27:51Z</time>
      </trkpt>
      <trkpt lat="42.94722" lon="-0.44066">
        <ele>753.811035</ele>
        <time>2011-07-31T09:28:02Z</time>
      </trkpt>
      <trkpt lat="42.94717" lon="-0.44066">
        <ele>756.214111</ele>
        <time>2011-07-31T09:28:12Z</time>
      </trkpt>
      <trkpt lat="42.94701" lon="-0.4407">
        <ele>757.65625</ele>
        <time>2011-07-31T09:28:28Z</time>
      </trkpt>
      <trkpt lat="42.94682" lon="-0.4408">
        <ele>760.059326</ele>
        <time>2011-07-31T09:28:40Z</time>
      </trkpt>
      <trkpt lat="42.94675" lon="-0.44081">
        <ele>761.982178</ele>
        <time>2011-07-31T09:28:50Z</time>
      </trkpt>
      <trkpt lat="42.94658" lon="-0.44076">
        <ele>765.346924</ele>
        <time>2011-07-31T09:29:06Z</time>
      </trkpt>
      <trkpt lat="42.9465" lon="-0.44075">
        <ele>766.308105</ele>
        <time>2011-07-31T09:29:13Z</time>
      </trkpt>
      <trkpt lat="42.94635" lon="-0.44071">
        <ele>769.672852</ele>
        <time>2011-07-31T09:29:29Z</time>
      </trkpt>
      <trkpt lat="42.94623" lon="-0.44066">
        <ele>771.114746</ele>
        <time>2011-07-31T09:29:43Z</time>
      </trkpt>
      <trkpt lat="42.94608" lon="-0.44059">
        <ele>774.479248</ele>
        <time>2011-07-31T09:29:58Z</time>
      </trkpt>
      <trkpt lat="42.94602" lon="-0.44058">
        <ele>776.401855</ele>
        <time>2011-07-31T09:30:07Z</time>
      </trkpt>
      <trkpt lat="42.94588" lon="-0.44049">
        <ele>778.324463</ele>
        <time>2011-07-31T09:30:19Z</time>
      </trkpt>
      <trkpt lat="42.94583" lon="-0.4404">
        <ele>779.285645</ele>
        <time>2011-07-31T09:30:27Z</time>
      </trkpt>
      <trkpt lat="42.9458" lon="-0.44036">
        <ele>780.247314</ele>
        <time>2011-07-31T09:30:30Z</time>
      </trkpt>
      <trkpt lat="42.94564" lon="-0.44022">
        <ele>782.169922</ele>
        <time>2011-07-31T09:30:47Z</time>
      </trkpt>
      <trkpt lat="42.94559" lon="-0.44002">
        <ele>786.015137</ele>
        <time>2011-07-31T09:31:04Z</time>
      </trkpt>
      <trkpt lat="42.9455" lon="-0.43991">
        <ele>787.937744</ele>
        <time>2011-07-31T09:31:16Z</time>
      </trkpt>
      <trkpt lat="42.94538" lon="-0.43972">
        <ele>789.860352</ele>
        <time>2011-07-31T09:31:32Z</time>
      </trkpt>
      <trkpt lat="42.94529" lon="-0.43953">
        <ele>792.744385</ele>
        <time>2011-07-31T09:31:46Z</time>
      </trkpt>
      <trkpt lat="42.94525" lon="-0.43924">
        <ele>795.147461</ele>
        <time>2011-07-31T09:32:04Z</time>
      </trkpt>
      <trkpt lat="42.94524" lon="-0.4392">
        <ele>795.628174</ele>
        <time>2011-07-31T09:32:07Z</time>
      </trkpt>
      <trkpt lat="42.94522" lon="-0.43914">
        <ele>795.628174</ele>
        <time>2011-07-31T09:32:11Z</time>
      </trkpt>
      <trkpt lat="42.94504" lon="-0.43913">
        <ele>795.628174</ele>
        <time>2011-07-31T09:32:28Z</time>
      </trkpt>
      <trkpt lat="42.94487" lon="-0.43915">
        <ele>797.070312</ele>
        <time>2011-07-31T09:32:45Z</time>
      </trkpt>
      <trkpt lat="42.94477" lon="-0.43909">
        <ele>797.070312</ele>
        <time>2011-07-31T09:32:55Z</time>
      </trkpt>
      <trkpt lat="42.94463" lon="-0.43907">
        <ele>797.551025</ele>
        <time>2011-07-31T09:33:12Z</time>
      </trkpt>
      <trkpt lat="42.9445" lon="-0.43903">
        <ele>800.435059</ele>
        <time>2011-07-31T09:33:26Z</time>
      </trkpt>
      <trkpt lat="42.94436" lon="-0.439">
        <ele>804.280273</ele>
        <time>2011-07-31T09:33:39Z</time>
      </trkpt>
      <trkpt lat="42.94428" lon="-0.43898">
        <ele>804.760742</ele>
        <time>2011-07-31T09:33:47Z</time>
      </trkpt>
      <trkpt lat="42.94416" lon="-0.43891">
        <ele>807.644775</ele>
        <time>2011-07-31T09:34:02Z</time>
      </trkpt>
      <trkpt lat="42.94408" lon="-0.43886">
        <ele>808.605957</ele>
        <time>2011-07-31T09:34:13Z</time>
      </trkpt>
      <trkpt lat="42.94407" lon="-0.43884">
        <ele>808.125488</ele>
        <time>2011-07-31T09:34:14Z</time>
      </trkpt>
      <trkpt lat="42.94403" lon="-0.43878">
        <ele>808.605957</ele>
        <time>2011-07-31T09:34:29Z</time>
      </trkpt>
      <trkpt lat="42.94404" lon="-0.43886">
        <ele>809.08667</ele>
        <time>2011-07-31T09:34:35Z</time>
      </trkpt>
      <trkpt lat="42.94398" lon="-0.43903">
        <ele>810.047852</ele>
        <time>2011-07-31T09:34:52Z</time>
      </trkpt>
      <trkpt lat="42.94395" lon="-0.43893">
        <ele>811.970703</ele>
        <time>2011-07-31T09:35:12Z</time>
      </trkpt>
      <trkpt lat="42.94392" lon="-0.43871">
        <ele>815.335449</ele>
        <time>2011-07-31T09:35:33Z</time>
      </trkpt>
      <trkpt lat="42.94372" lon="-0.43881">
        <ele>818.699951</ele>
        <time>2011-07-31T09:35:49Z</time>
      </trkpt>
      <trkpt lat="42.94359" lon="-0.43881">
        <ele>821.103271</ele>
        <time>2011-07-31T09:36:06Z</time>
      </trkpt>
      <trkpt lat="42.94353" lon="-0.43874">
        <ele>822.545166</ele>
        <time>2011-07-31T09:36:20Z</time>
      </trkpt>
      <trkpt lat="42.94348" lon="-0.43873">
        <ele>823.987061</ele>
        <time>2011-07-31T09:36:34Z</time>
      </trkpt>
      <trkpt lat="42.94334" lon="-0.43863">
        <ele>825.428955</ele>
        <time>2011-07-31T09:36:52Z</time>
      </trkpt>
      <trkpt lat="42.94324" lon="-0.43858">
        <ele>826.871094</ele>
        <time>2011-07-31T09:37:01Z</time>
      </trkpt>
      <trkpt lat="42.94317" lon="-0.43857">
        <ele>828.313232</ele>
        <time>2011-07-31T09:37:14Z</time>
      </trkpt>
      <trkpt lat="42.94309" lon="-0.43847">
        <ele>831.197266</ele>
        <time>2011-07-31T09:37:30Z</time>
      </trkpt>
      <trkpt lat="42.94299" lon="-0.43842">
        <ele>834.081055</ele>
        <time>2011-07-31T09:37:50Z</time>
      </trkpt>
      <trkpt lat="42.94289" lon="-0.43837">
        <ele>835.522949</ele>
        <time>2011-07-31T09:38:05Z</time>
      </trkpt>
      <trkpt lat="42.94285" lon="-0.43838">
        <ele>836.003662</ele>
        <time>2011-07-31T09:38:10Z</time>
      </trkpt>
      <trkpt lat="42.94275" lon="-0.43835">
        <ele>836.964844</ele>
        <time>2011-07-31T09:38:23Z</time>
      </trkpt>
      <trkpt lat="42.94271" lon="-0.43834">
        <ele>836.964844</ele>
        <time>2011-07-31T09:38:27Z</time>
      </trkpt>
      <trkpt lat="42.9426" lon="-0.43845">
        <ele>836.964844</ele>
        <time>2011-07-31T09:38:37Z</time>
      </trkpt>
      <trkpt lat="42.94253" lon="-0.43845">
        <ele>837.445557</ele>
        <time>2011-07-31T09:38:47Z</time>
      </trkpt>
      <trkpt lat="42.94255" lon="-0.43854">
        <ele>837.92627</ele>
        <time>2011-07-31T09:38:54Z</time>
      </trkpt>
      <trkpt lat="42.94254" lon="-0.43861">
        <ele>836.484375</ele>
        <time>2011-07-31T09:38:57Z</time>
      </trkpt>
      <trkpt lat="42.94255" lon="-0.43877">
        <ele>836.484375</ele>
        <time>2011-07-31T09:39:11Z</time>
      </trkpt>
      <trkpt lat="42.94247" lon="-0.43889">
        <ele>835.04248</ele>
        <time>2011-07-31T09:39:20Z</time>
      </trkpt>
      <trkpt lat="42.94247" lon="-0.439">
        <ele>834.081055</ele>
        <time>2011-07-31T09:39:33Z</time>
      </trkpt>
      <trkpt lat="42.94244" lon="-0.43914">
        <ele>836.484375</ele>
        <time>2011-07-31T09:39:50Z</time>
      </trkpt>
      <trkpt lat="42.94236" lon="-0.43927">
        <ele>836.484375</ele>
        <time>2011-07-31T09:40:02Z</time>
      </trkpt>
      <trkpt lat="42.94231" lon="-0.4393">
        <ele>837.445557</ele>
        <time>2011-07-31T09:40:15Z</time>
      </trkpt>
      <trkpt lat="42.94231" lon="-0.4394">
        <ele>838.406982</ele>
        <time>2011-07-31T09:40:43Z</time>
      </trkpt>
      <trkpt lat="42.94225" lon="-0.43947">
        <ele>839.368164</ele>
        <time>2011-07-31T09:41:00Z</time>
      </trkpt>
      <trkpt lat="42.94223" lon="-0.43948">
        <ele>841.290771</ele>
        <time>2011-07-31T09:41:09Z</time>
      </trkpt>
      <trkpt lat="42.94223" lon="-0.43949">
        <ele>837.92627</ele>
        <time>2011-07-31T09:41:11Z</time>
      </trkpt>
      <trkpt lat="42.94222" lon="-0.43951">
        <ele>841.290771</ele>
        <time>2011-07-31T09:41:13Z</time>
      </trkpt>
      <trkpt lat="42.94218" lon="-0.43953">
        <ele>838.887695</ele>
        <time>2011-07-31T09:41:18Z</time>
      </trkpt>
      <trkpt lat="42.94205" lon="-0.43966">
        <ele>841.290771</ele>
        <time>2011-07-31T09:41:36Z</time>
      </trkpt>
      <trkpt lat="42.94199" lon="-0.43973">
        <ele>842.73291</ele>
        <time>2011-07-31T09:41:49Z</time>
      </trkpt>
      <trkpt lat="42.942" lon="-0.4397">
        <ele>841.290771</ele>
        <time>2011-07-31T09:42:16Z</time>
      </trkpt>
      <trkpt lat="42.94211" lon="-0.4396">
        <ele>841.290771</ele>
        <time>2011-07-31T09:42:51Z</time>
      </trkpt>
      <trkpt lat="42.94208" lon="-0.43962">
        <ele>841.290771</ele>
        <time>2011-07-31T09:42:59Z</time>
      </trkpt>
      <trkpt lat="42.94189" lon="-0.43969">
        <ele>839.848877</ele>
        <time>2011-07-31T09:43:17Z</time>
      </trkpt>
      <trkpt lat="42.94179" lon="-0.43977">
        <ele>837.92627</ele>
        <time>2011-07-31T09:43:29Z</time>
      </trkpt>
      <trkpt lat="42.94172" lon="-0.43986">
        <ele>837.92627</ele>
        <time>2011-07-31T09:43:37Z</time>
      </trkpt>
      <trkpt lat="42.9416" lon="-0.43997">
        <ele>837.445557</ele>
        <time>2011-07-31T09:43:50Z</time>
      </trkpt>
      <trkpt lat="42.94149" lon="-0.44001">
        <ele>838.406982</ele>
        <time>2011-07-31T09:44:04Z</time>
      </trkpt>
      <trkpt lat="42.94136" lon="-0.4401">
        <ele>839.848877</ele>
        <time>2011-07-31T09:44:15Z</time>
      </trkpt>
      <trkpt lat="42.94131" lon="-0.44009">
        <ele>841.290771</ele>
        <time>2011-07-31T09:44:20Z</time>
      </trkpt>
      <trkpt lat="42.94122" lon="-0.44013">
        <ele>841.771484</ele>
        <time>2011-07-31T09:44:29Z</time>
      </trkpt>
      <trkpt lat="42.94112" lon="-0.44018">
        <ele>841.771484</ele>
        <time>2011-07-31T09:44:38Z</time>
      </trkpt>
      <trkpt lat="42.94098" lon="-0.44029">
        <ele>843.694092</ele>
        <time>2011-07-31T09:44:53Z</time>
      </trkpt>
      <trkpt lat="42.94085" lon="-0.44037">
        <ele>844.655518</ele>
        <time>2011-07-31T09:45:05Z</time>
      </trkpt>
      <trkpt lat="42.94083" lon="-0.44041">
        <ele>844.655518</ele>
        <time>2011-07-31T09:45:09Z</time>
      </trkpt>
      <trkpt lat="42.94072" lon="-0.44045">
        <ele>846.097656</ele>
        <time>2011-07-31T09:45:20Z</time>
      </trkpt>
      <trkpt lat="42.94064" lon="-0.44049">
        <ele>848.500732</ele>
        <time>2011-07-31T09:45:32Z</time>
      </trkpt>
      <trkpt lat="42.94057" lon="-0.44054">
        <ele>850.423584</ele>
        <time>2011-07-31T09:45:42Z</time>
      </trkpt>
      <trkpt lat="42.94054" lon="-0.44055">
        <ele>848.981445</ele>
        <time>2011-07-31T09:45:45Z</time>
      </trkpt>
      <trkpt lat="42.94053" lon="-0.44055">
        <ele>852.345947</ele>
        <time>2011-07-31T09:45:48Z</time>
      </trkpt>
      <trkpt lat="42.94043" lon="-0.44062">
        <ele>853.307373</ele>
        <time>2011-07-31T09:46:02Z</time>
      </trkpt>
      <trkpt lat="42.9404" lon="-0.4407">
        <ele>855.22998</ele>
        <time>2011-07-31T09:46:13Z</time>
      </trkpt>
      <trkpt lat="42.9403" lon="-0.44076">
        <ele>858.114014</ele>
        <time>2011-07-31T09:46:27Z</time>
      </trkpt>
      <trkpt lat="42.94019" lon="-0.4408">
        <ele>860.036621</ele>
        <time>2011-07-31T09:46:40Z</time>
      </trkpt>
      <trkpt lat="42.94014" lon="-0.44081">
        <ele>862.439941</ele>
        <time>2011-07-31T09:46:50Z</time>
      </trkpt>
      <trkpt lat="42.94004" lon="-0.44087">
        <ele>864.843262</ele>
        <time>2011-07-31T09:47:04Z</time>
      </trkpt>
      <trkpt lat="42.93994" lon="-0.44086">
        <ele>868.207764</ele>
        <time>2011-07-31T09:47:18Z</time>
      </trkpt>
      <trkpt lat="42.93986" lon="-0.44084">
        <ele>869.649902</ele>
        <time>2011-07-31T09:47:29Z</time>
      </trkpt>
      <trkpt lat="42.93982" lon="-0.44078">
        <ele>871.091797</ele>
        <time>2011-07-31T09:47:39Z</time>
      </trkpt>
      <trkpt lat="42.93976" lon="-0.44069">
        <ele>873.975586</ele>
        <time>2011-07-31T09:47:51Z</time>
      </trkpt>
      <trkpt lat="42.93972" lon="-0.44068">
        <ele>875.898193</ele>
        <time>2011-07-31T09:47:57Z</time>
      </trkpt>
      <trkpt lat="42.93964" lon="-0.44073">
        <ele>879.262939</ele>
        <time>2011-07-31T09:48:07Z</time>
      </trkpt>
      <trkpt lat="42.93954" lon="-0.44079">
        <ele>881.185791</ele>
        <time>2011-07-31T09:48:18Z</time>
      </trkpt>
      <trkpt lat="42.9394" lon="-0.44079">
        <ele>882.146973</ele>
        <time>2011-07-31T09:48:34Z</time>
      </trkpt>
      <trkpt lat="42.93933" lon="-0.44079">
        <ele>885.511475</ele>
        <time>2011-07-31T09:48:44Z</time>
      </trkpt>
      <trkpt lat="42.93932" lon="-0.4408">
        <ele>885.511475</ele>
        <time>2011-07-31T09:48:45Z</time>
      </trkpt>
      <trkpt lat="42.93923" lon="-0.44075">
        <ele>886.4729</ele>
        <time>2011-07-31T09:48:58Z</time>
      </trkpt>
      <trkpt lat="42.93915" lon="-0.44077">
        <ele>887.914795</ele>
        <time>2011-07-31T09:49:08Z</time>
      </trkpt>
      <trkpt lat="42.93904" lon="-0.44073">
        <ele>891.279297</ele>
        <time>2011-07-31T09:49:25Z</time>
      </trkpt>
      <trkpt lat="42.93897" lon="-0.4407">
        <ele>893.202148</ele>
        <time>2011-07-31T09:49:34Z</time>
      </trkpt>
      <trkpt lat="42.93898" lon="-0.44065">
        <ele>896.086182</ele>
        <time>2011-07-31T09:49:48Z</time>
      </trkpt>
      <trkpt lat="42.93906" lon="-0.44059">
        <ele>897.528076</ele>
        <time>2011-07-31T09:50:01Z</time>
      </trkpt>
      <trkpt lat="42.93901" lon="-0.44057">
        <ele>899.931396</ele>
        <time>2011-07-31T09:50:15Z</time>
      </trkpt>
      <trkpt lat="42.93892" lon="-0.44056">
        <ele>901.373291</ele>
        <time>2011-07-31T09:50:30Z</time>
      </trkpt>
      <trkpt lat="42.93885" lon="-0.44048">
        <ele>903.295898</ele>
        <time>2011-07-31T09:50:45Z</time>
      </trkpt>
      <trkpt lat="42.93874" lon="-0.44057">
        <ele>905.699219</ele>
        <time>2011-07-31T09:51:05Z</time>
      </trkpt>
      <trkpt lat="42.93869" lon="-0.44049">
        <ele>907.621826</ele>
        <time>2011-07-31T09:51:17Z</time>
      </trkpt>
      <trkpt lat="42.93863" lon="-0.44038">
        <ele>908.583252</ele>
        <time>2011-07-31T09:51:28Z</time>
      </trkpt>
      <trkpt lat="42.93858" lon="-0.44031">
        <ele>911.467285</ele>
        <time>2011-07-31T09:51:37Z</time>
      </trkpt>
      <trkpt lat="42.93852" lon="-0.44025">
        <ele>912.90918</ele>
        <time>2011-07-31T09:51:50Z</time>
      </trkpt>
      <trkpt lat="42.93848" lon="-0.44024">
        <ele>914.351074</ele>
        <time>2011-07-31T09:52:01Z</time>
      </trkpt>
      <trkpt lat="42.93846" lon="-0.44026">
        <ele>915.3125</ele>
        <time>2011-07-31T09:52:41Z</time>
      </trkpt>
      <trkpt lat="42.93842" lon="-0.44017">
        <ele>917.715576</ele>
        <time>2011-07-31T09:53:18Z</time>
      </trkpt>
      <trkpt lat="42.93835" lon="-0.44011">
        <ele>921.080322</ele>
        <time>2011-07-31T09:53:32Z</time>
      </trkpt>
      <trkpt lat="42.93831" lon="-0.44">
        <ele>921.560791</ele>
        <time>2011-07-31T09:53:53Z</time>
      </trkpt>
      <trkpt lat="42.93829" lon="-0.43996">
        <ele>923.00293</ele>
        <time>2011-07-31T09:54:08Z</time>
      </trkpt>
      <trkpt lat="42.93822" lon="-0.43988">
        <ele>923.483643</ele>
        <time>2011-07-31T09:54:20Z</time>
      </trkpt>
      <trkpt lat="42.93817" lon="-0.43981">
        <ele>926.848389</ele>
        <time>2011-07-31T09:54:29Z</time>
      </trkpt>
      <trkpt lat="42.93814" lon="-0.43979">
        <ele>927.329102</ele>
        <time>2011-07-31T09:54:33Z</time>
      </trkpt>
      <trkpt lat="42.93809" lon="-0.43976">
        <ele>929.251465</ele>
        <time>2011-07-31T09:54:43Z</time>
      </trkpt>
      <trkpt lat="42.93802" lon="-0.43972">
        <ele>931.654785</ele>
        <time>2011-07-31T09:54:52Z</time>
      </trkpt>
      <trkpt lat="42.93793" lon="-0.43963">
        <ele>933.09668</ele>
        <time>2011-07-31T09:55:05Z</time>
      </trkpt>
      <trkpt lat="42.93791" lon="-0.43962">
        <ele>934.538818</ele>
        <time>2011-07-31T09:55:08Z</time>
      </trkpt>
      <trkpt lat="42.9378" lon="-0.43961">
        <ele>937.422607</ele>
        <time>2011-07-31T09:55:24Z</time>
      </trkpt>
      <trkpt lat="42.93772" lon="-0.43957">
        <ele>940.306885</ele>
        <time>2011-07-31T09:55:37Z</time>
      </trkpt>
      <trkpt lat="42.93762" lon="-0.43951">
        <ele>942.229492</ele>
        <time>2011-07-31T09:55:54Z</time>
      </trkpt>
      <trkpt lat="42.93753" lon="-0.43946">
        <ele>945.113281</ele>
        <time>2011-07-31T09:56:08Z</time>
      </trkpt>
      <trkpt lat="42.93744" lon="-0.43945">
        <ele>946.074707</ele>
        <time>2011-07-31T09:56:20Z</time>
      </trkpt>
      <trkpt lat="42.93735" lon="-0.43943">
        <ele>947.035889</ele>
        <time>2011-07-31T09:56:34Z</time>
      </trkpt>
      <trkpt lat="42.93733" lon="-0.43943">
        <ele>950.400635</ele>
        <time>2011-07-31T09:56:36Z</time>
      </trkpt>
      <trkpt lat="42.93733" lon="-0.43943">
        <ele>948.477783</ele>
        <time>2011-07-31T09:56:37Z</time>
      </trkpt>
      <trkpt lat="42.93723" lon="-0.43944">
        <ele>949.919922</ele>
        <time>2011-07-31T09:56:51Z</time>
      </trkpt>
      <trkpt lat="42.93713" lon="-0.43943">
        <ele>952.803711</ele>
        <time>2011-07-31T09:57:07Z</time>
      </trkpt>
      <trkpt lat="42.93703" lon="-0.43946">
        <ele>954.24585</ele>
        <time>2011-07-31T09:57:19Z</time>
      </trkpt>
      <trkpt lat="42.93692" lon="-0.43941">
        <ele>954.726318</ele>
        <time>2011-07-31T09:57:34Z</time>
      </trkpt>
      <trkpt lat="42.93685" lon="-0.43943">
        <ele>956.168457</ele>
        <time>2011-07-31T09:57:44Z</time>
      </trkpt>
      <trkpt lat="42.93677" lon="-0.43948">
        <ele>958.091309</ele>
        <time>2011-07-31T09:57:58Z</time>
      </trkpt>
      <trkpt lat="42.93672" lon="-0.43948">
        <ele>960.013672</ele>
        <time>2011-07-31T09:58:07Z</time>
      </trkpt>
      <trkpt lat="42.9367" lon="-0.43949">
        <ele>960.494385</ele>
        <time>2011-07-31T09:58:09Z</time>
      </trkpt>
      <trkpt lat="42.93668" lon="-0.43948">
        <ele>959.05249</ele>
        <time>2011-07-31T09:58:11Z</time>
      </trkpt>
      <trkpt lat="42.93661" lon="-0.43948">
        <ele>958.571777</ele>
        <time>2011-07-31T09:58:28Z</time>
      </trkpt>
      <trkpt lat="42.93651" lon="-0.43954">
        <ele>959.533203</ele>
        <time>2011-07-31T09:58:41Z</time>
      </trkpt>
      <trkpt lat="42.93642" lon="-0.43958">
        <ele>963.378418</ele>
        <time>2011-07-31T09:58:53Z</time>
      </trkpt>
      <trkpt lat="42.93641" lon="-0.43958">
        <ele>962.897705</ele>
        <time>2011-07-31T09:58:54Z</time>
      </trkpt>
      <trkpt lat="42.93632" lon="-0.4396">
        <ele>963.858887</ele>
        <time>2011-07-31T09:59:07Z</time>
      </trkpt>
      <trkpt lat="42.93623" lon="-0.43964">
        <ele>964.820312</ele>
        <time>2011-07-31T09:59:19Z</time>
      </trkpt>
      <trkpt lat="42.93614" lon="-0.43967">
        <ele>966.262207</ele>
        <time>2011-07-31T09:59:32Z</time>
      </trkpt>
      <trkpt lat="42.93605" lon="-0.43972">
        <ele>967.704102</ele>
        <time>2011-07-31T09:59:45Z</time>
      </trkpt>
      <trkpt lat="42.93595" lon="-0.43981">
        <ele>969.14624</ele>
        <time>2011-07-31T10:00:01Z</time>
      </trkpt>
      <trkpt lat="42.93588" lon="-0.43986">
        <ele>970.588135</ele>
        <time>2011-07-31T10:00:15Z</time>
      </trkpt>
      <trkpt lat="42.93577" lon="-0.43994">
        <ele>972.510986</ele>
        <time>2011-07-31T10:00:30Z</time>
      </trkpt>
      <trkpt lat="42.93566" lon="-0.44">
        <ele>973.952881</ele>
        <time>2011-07-31T10:00:45Z</time>
      </trkpt>
      <trkpt lat="42.93563" lon="-0.44002">
        <ele>974.914307</ele>
        <time>2011-07-31T10:00:51Z</time>
      </trkpt>
      <trkpt lat="42.9355" lon="-0.44008">
        <ele>975.394775</ele>
        <time>2011-07-31T10:01:08Z</time>
      </trkpt>
      <trkpt lat="42.93543" lon="-0.44013">
        <ele>976.356201</ele>
        <time>2011-07-31T10:01:18Z</time>
      </trkpt>
      <trkpt lat="42.93535" lon="-0.44015">
        <ele>977.798096</ele>
        <time>2011-07-31T10:01:30Z</time>
      </trkpt>
      <trkpt lat="42.93526" lon="-0.44019">
        <ele>977.798096</ele>
        <time>2011-07-31T10:01:42Z</time>
      </trkpt>
      <trkpt lat="42.9352" lon="-0.44022">
        <ele>977.798096</ele>
        <time>2011-07-31T10:01:51Z</time>
      </trkpt>
      <trkpt lat="42.93509" lon="-0.44027">
        <ele>977.798096</ele>
        <time>2011-07-31T10:02:05Z</time>
      </trkpt>
      <trkpt lat="42.93502" lon="-0.44034">
        <ele>977.798096</ele>
        <time>2011-07-31T10:02:15Z</time>
      </trkpt>
      <trkpt lat="42.93486" lon="-0.44039">
        <ele>976.356201</ele>
        <time>2011-07-31T10:02:33Z</time>
      </trkpt>
      <trkpt lat="42.93483" lon="-0.4404">
        <ele>976.356201</ele>
        <time>2011-07-31T10:02:37Z</time>
      </trkpt>
      <trkpt lat="42.93472" lon="-0.44041">
        <ele>975.875488</ele>
        <time>2011-07-31T10:02:49Z</time>
      </trkpt>
      <trkpt lat="42.93463" lon="-0.44042">
        <ele>974.914307</ele>
        <time>2011-07-31T10:02:59Z</time>
      </trkpt>
      <trkpt lat="42.93455" lon="-0.44041">
        <ele>974.433594</ele>
        <time>2011-07-31T10:03:10Z</time>
      </trkpt>
      <trkpt lat="42.93435" lon="-0.44025">
        <ele>977.798096</ele>
        <time>2011-07-31T10:04:38Z</time>
      </trkpt>
      <trkpt lat="42.93432" lon="-0.44033">
        <ele>978.759521</ele>
        <time>2011-07-31T10:04:50Z</time>
      </trkpt>
      <trkpt lat="42.93435" lon="-0.44035">
        <ele>979.23999</ele>
        <time>2011-07-31T10:05:02Z</time>
      </trkpt>
      <trkpt lat="42.93444" lon="-0.44036">
        <ele>976.356201</ele>
        <time>2011-07-31T10:05:21Z</time>
      </trkpt>
      <trkpt lat="42.93451" lon="-0.44023">
        <ele>976.836914</ele>
        <time>2011-07-31T10:05:56Z</time>
      </trkpt>
      <trkpt lat="42.93464" lon="-0.4405">
        <ele>978.278809</ele>
        <time>2011-07-31T10:07:02Z</time>
      </trkpt>
      <trkpt lat="42.93453" lon="-0.44054">
        <ele>977.798096</ele>
        <time>2011-07-31T10:07:13Z</time>
      </trkpt>
      <trkpt lat="42.93458" lon="-0.44051">
        <ele>979.23999</ele>
        <time>2011-07-31T10:09:11Z</time>
      </trkpt>
      <trkpt lat="42.93449" lon="-0.4404">
        <ele>979.720703</ele>
        <time>2011-07-31T10:09:19Z</time>
      </trkpt>
      <trkpt lat="42.93441" lon="-0.44039">
        <ele>979.720703</ele>
        <time>2011-07-31T10:09:42Z</time>
      </trkpt>
      <trkpt lat="42.93443" lon="-0.44029">
        <ele>976.836914</ele>
        <time>2011-07-31T10:10:03Z</time>
      </trkpt>
      <trkpt lat="42.93436" lon="-0.44026">
        <ele>977.317627</ele>
        <time>2011-07-31T10:10:28Z</time>
      </trkpt>
      <trkpt lat="42.93441" lon="-0.44025">
        <ele>977.798096</ele>
        <time>2011-07-31T10:11:06Z</time>
      </trkpt>
      <trkpt lat="42.93443" lon="-0.44037">
        <ele>979.23999</ele>
        <time>2011-07-31T10:11:24Z</time>
      </trkpt>
      <trkpt lat="42.93439" lon="-0.44036">
        <ele>981.162842</ele>
        <time>2011-07-31T10:11:49Z</time>
      </trkpt>
      <trkpt lat="42.9343" lon="-0.44013">
        <ele>982.124023</ele>
        <time>2011-07-31T10:12:02Z</time>
      </trkpt>
    </trkseg>
  </trk>
  <trk>
    <name><![CDATA[ACTIVE LOG 006]]></name>
    <trkseg>
      <trkpt lat="42.93465" lon="-0.44113">
        <ele>982.124023</ele>
        <time>2011-07-31T10:58:37Z</time>
      </trkpt>
      <trkpt lat="42.9347" lon="-0.44088">
        <ele>980.201416</ele>
        <time>2011-07-31T10:58:55Z</time>
      </trkpt>
      <trkpt lat="42.93461" lon="-0.4408">
        <ele>979.23999</ele>
        <time>2011-07-31T10:59:16Z</time>
      </trkpt>
      <trkpt lat="42.93455" lon="-0.44073">
        <ele>980.201416</ele>
        <time>2011-07-31T10:59:37Z</time>
      </trkpt>
      <trkpt lat="42.93441" lon="-0.44063">
        <ele>980.682129</ele>
        <time>2011-07-31T11:00:07Z</time>
      </trkpt>
      <trkpt lat="42.93449" lon="-0.44068">
        <ele>981.162842</ele>
        <time>2011-07-31T11:00:41Z</time>
      </trkpt>
      <trkpt lat="42.93446" lon="-0.44058">
        <ele>980.682129</ele>
        <time>2011-07-31T11:01:13Z</time>
      </trkpt>
      <trkpt lat="42.93434" lon="-0.44069">
        <ele>977.798096</ele>
        <time>2011-07-31T11:01:30Z</time>
      </trkpt>
      <trkpt lat="42.93428" lon="-0.44084">
        <ele>975.875488</ele>
        <time>2011-07-31T11:01:45Z</time>
      </trkpt>
      <trkpt lat="42.93423" lon="-0.44096">
        <ele>972.510986</ele>
        <time>2011-07-31T11:01:57Z</time>
      </trkpt>
      <trkpt lat="42.93423" lon="-0.44096">
        <ele>972.991699</ele>
        <time>2011-07-31T11:01:58Z</time>
      </trkpt>
      <trkpt lat="42.93419" lon="-0.441">
        <ele>971.549316</ele>
        <time>2011-07-31T11:02:08Z</time>
      </trkpt>
      <trkpt lat="42.93413" lon="-0.44111">
        <ele>969.626953</ele>
        <time>2011-07-31T11:02:22Z</time>
      </trkpt>
      <trkpt lat="42.93406" lon="-0.44126">
        <ele>968.665527</ele>
        <time>2011-07-31T11:02:37Z</time>
      </trkpt>
      <trkpt lat="42.93402" lon="-0.44137">
        <ele>968.184814</ele>
        <time>2011-07-31T11:02:48Z</time>
      </trkpt>
      <trkpt lat="42.93393" lon="-0.44144">
        <ele>967.223633</ele>
        <time>2011-07-31T11:03:00Z</time>
      </trkpt>
      <trkpt lat="42.93388" lon="-0.44143">
        <ele>966.262207</ele>
        <time>2011-07-31T11:03:14Z</time>
      </trkpt>
      <trkpt lat="42.93395" lon="-0.44123">
        <ele>966.74292</ele>
        <time>2011-07-31T11:03:43Z</time>
      </trkpt>
      <trkpt lat="42.93407" lon="-0.44112">
        <ele>969.14624</ele>
        <time>2011-07-31T11:04:03Z</time>
      </trkpt>
      <trkpt lat="42.93413" lon="-0.44107">
        <ele>969.626953</ele>
        <time>2011-07-31T11:04:15Z</time>
      </trkpt>
      <trkpt lat="42.93415" lon="-0.44099">
        <ele>972.030273</ele>
        <time>2011-07-31T11:04:27Z</time>
      </trkpt>
      <trkpt lat="42.93419" lon="-0.44096">
        <ele>972.991699</ele>
        <time>2011-07-31T11:04:32Z</time>
      </trkpt>
      <trkpt lat="42.93423" lon="-0.44086">
        <ele>975.875488</ele>
        <time>2011-07-31T11:04:47Z</time>
      </trkpt>
      <trkpt lat="42.93425" lon="-0.4407">
        <ele>978.278809</ele>
        <time>2011-07-31T11:05:07Z</time>
      </trkpt>
      <trkpt lat="42.9343" lon="-0.44058">
        <ele>980.201416</ele>
        <time>2011-07-31T11:05:20Z</time>
      </trkpt>
      <trkpt lat="42.93433" lon="-0.44046">
        <ele>981.162842</ele>
        <time>2011-07-31T11:05:30Z</time>
      </trkpt>
      <trkpt lat="42.93441" lon="-0.44048">
        <ele>984.046631</ele>
        <time>2011-07-31T11:05:44Z</time>
      </trkpt>
      <trkpt lat="42.93435" lon="-0.44062">
        <ele>986.449951</ele>
        <time>2011-07-31T11:05:54Z</time>
      </trkpt>
      <trkpt lat="42.93434" lon="-0.44075">
        <ele>989.333984</ele>
        <time>2011-07-31T11:06:01Z</time>
      </trkpt>
      <trkpt lat="42.9343" lon="-0.44069">
        <ele>992.69873</ele>
        <time>2011-07-31T11:06:18Z</time>
      </trkpt>
      <trkpt lat="42.9343" lon="-0.44063">
        <ele>996.063232</ele>
        <time>2011-07-31T11:06:28Z</time>
      </trkpt>
      <trkpt lat="42.93425" lon="-0.44068">
        <ele>999.427734</ele>
        <time>2011-07-31T11:06:37Z</time>
      </trkpt>
      <trkpt lat="42.93423" lon="-0.44067">
        <ele>998.947021</ele>
        <time>2011-07-31T11:06:38Z</time>
      </trkpt>
      <trkpt lat="42.93412" lon="-0.44051">
        <ele>999.908447</ele>
        <time>2011-07-31T11:06:51Z</time>
      </trkpt>
      <trkpt lat="42.93411" lon="-0.44042">
        <ele>1002.311523</ele>
        <time>2011-07-31T11:07:05Z</time>
      </trkpt>
      <trkpt lat="42.93402" lon="-0.44042">
        <ele>1005.676514</ele>
        <time>2011-07-31T11:07:23Z</time>
      </trkpt>
      <trkpt lat="42.93396" lon="-0.44048">
        <ele>1008.079834</ele>
        <time>2011-07-31T11:07:34Z</time>
      </trkpt>
      <trkpt lat="42.93395" lon="-0.44048">
        <ele>1010.002197</ele>
        <time>2011-07-31T11:07:38Z</time>
      </trkpt>
      <trkpt lat="42.93387" lon="-0.44052">
        <ele>1011.444336</ele>
        <time>2011-07-31T11:07:54Z</time>
      </trkpt>
      <trkpt lat="42.93379" lon="-0.44057">
        <ele>1013.366943</ele>
        <time>2011-07-31T11:08:08Z</time>
      </trkpt>
      <trkpt lat="42.93379" lon="-0.44057">
        <ele>1013.366943</ele>
        <time>2011-07-31T11:08:09Z</time>
      </trkpt>
      <trkpt lat="42.93377" lon="-0.44059">
        <ele>1014.808838</ele>
        <time>2011-07-31T11:08:14Z</time>
      </trkpt>
      <trkpt lat="42.93366" lon="-0.44067">
        <ele>1015.770264</ele>
        <time>2011-07-31T11:08:28Z</time>
      </trkpt>
      <trkpt lat="42.93357" lon="-0.44069">
        <ele>1019.615479</ele>
        <time>2011-07-31T11:08:45Z</time>
      </trkpt>
      <trkpt lat="42.93349" lon="-0.44078">
        <ele>1020.576904</ele>
        <time>2011-07-31T11:08:58Z</time>
      </trkpt>
      <trkpt lat="42.93338" lon="-0.44083">
        <ele>1020.096191</ele>
        <time>2011-07-31T11:09:09Z</time>
      </trkpt>
      <trkpt lat="42.93324" lon="-0.441">
        <ele>1021.538086</ele>
        <time>2011-07-31T11:09:24Z</time>
      </trkpt>
      <trkpt lat="42.93316" lon="-0.44103">
        <ele>1023.460938</ele>
        <time>2011-07-31T11:09:37Z</time>
      </trkpt>
      <trkpt lat="42.9331" lon="-0.441">
        <ele>1024.902832</ele>
        <time>2011-07-31T11:09:44Z</time>
      </trkpt>
      <trkpt lat="42.93303" lon="-0.44099">
        <ele>1027.786621</ele>
        <time>2011-07-31T11:09:52Z</time>
      </trkpt>
      <trkpt lat="42.93289" lon="-0.44101">
        <ele>1028.748047</ele>
        <time>2011-07-31T11:10:05Z</time>
      </trkpt>
      <trkpt lat="42.93281" lon="-0.44101">
        <ele>1032.112549</ele>
        <time>2011-07-31T11:10:16Z</time>
      </trkpt>
      <trkpt lat="42.93277" lon="-0.44101">
        <ele>1034.996582</ele>
        <time>2011-07-31T11:10:23Z</time>
      </trkpt>
      <trkpt lat="42.93266" lon="-0.44103">
        <ele>1036.438721</ele>
        <time>2011-07-31T11:10:35Z</time>
      </trkpt>
      <trkpt lat="42.93254" lon="-0.44102">
        <ele>1037.880615</ele>
        <time>2011-07-31T11:10:51Z</time>
      </trkpt>
      <trkpt lat="42.93244" lon="-0.44102">
        <ele>1039.803223</ele>
        <time>2011-07-31T11:11:08Z</time>
      </trkpt>
      <trkpt lat="42.93234" lon="-0.441">
        <ele>1042.687256</ele>
        <time>2011-07-31T11:11:28Z</time>
      </trkpt>
      <trkpt lat="42.93231" lon="-0.44097">
        <ele>1044.12915</ele>
        <time>2011-07-31T11:11:53Z</time>
      </trkpt>
      <trkpt lat="42.93224" lon="-0.44095">
        <ele>1047.012939</ele>
        <time>2011-07-31T11:12:10Z</time>
      </trkpt>
      <trkpt lat="42.93219" lon="-0.44093">
        <ele>1048.935547</ele>
        <time>2011-07-31T11:12:17Z</time>
      </trkpt>
      <trkpt lat="42.9321" lon="-0.44093">
        <ele>1049.41626</ele>
        <time>2011-07-31T11:12:30Z</time>
      </trkpt>
      <trkpt lat="42.93204" lon="-0.44095">
        <ele>1052.781006</ele>
        <time>2011-07-31T11:12:39Z</time>
      </trkpt>
      <trkpt lat="42.93196" lon="-0.44092">
        <ele>1054.223145</ele>
        <time>2011-07-31T11:12:50Z</time>
      </trkpt>
      <trkpt lat="42.93188" lon="-0.4409">
        <ele>1057.587646</ele>
        <time>2011-07-31T11:13:05Z</time>
      </trkpt>
      <trkpt lat="42.93183" lon="-0.44088">
        <ele>1060.952148</ele>
        <time>2011-07-31T11:13:15Z</time>
      </trkpt>
      <trkpt lat="42.93183" lon="-0.44088">
        <ele>1061.432861</ele>
        <time>2011-07-31T11:13:16Z</time>
      </trkpt>
      <trkpt lat="42.93171" lon="-0.44087">
        <ele>1063.835938</ele>
        <time>2011-07-31T11:13:32Z</time>
      </trkpt>
      <trkpt lat="42.93164" lon="-0.44083">
        <ele>1066.719971</ele>
        <time>2011-07-31T11:13:47Z</time>
      </trkpt>
      <trkpt lat="42.93171" lon="-0.44084">
        <ele>1063.835938</ele>
        <time>2011-07-31T11:13:59Z</time>
      </trkpt>
      <trkpt lat="42.93183" lon="-0.44085">
        <ele>1061.432861</ele>
        <time>2011-07-31T11:14:12Z</time>
      </trkpt>
      <trkpt lat="42.93189" lon="-0.44087">
        <ele>1058.068359</ele>
        <time>2011-07-31T11:14:24Z</time>
      </trkpt>
      <trkpt lat="42.93198" lon="-0.44088">
        <ele>1054.703613</ele>
        <time>2011-07-31T11:14:38Z</time>
      </trkpt>
      <trkpt lat="42.93201" lon="-0.4409">
        <ele>1051.338867</ele>
        <time>2011-07-31T11:14:45Z</time>
      </trkpt>
      <trkpt lat="42.93202" lon="-0.4409">
        <ele>1051.81958</ele>
        <time>2011-07-31T11:14:46Z</time>
      </trkpt>
      <trkpt lat="42.93209" lon="-0.44092">
        <ele>1048.935547</ele>
        <time>2011-07-31T11:14:58Z</time>
      </trkpt>
      <trkpt lat="42.93225" lon="-0.44095">
        <ele>1046.051758</ele>
        <time>2011-07-31T11:15:15Z</time>
      </trkpt>
      <trkpt lat="42.93234" lon="-0.44097">
        <ele>1043.167725</ele>
        <time>2011-07-31T11:15:28Z</time>
      </trkpt>
      <trkpt lat="42.93243" lon="-0.44096">
        <ele>1039.803223</ele>
        <time>2011-07-31T11:15:43Z</time>
      </trkpt>
      <trkpt lat="42.9326" lon="-0.44101">
        <ele>1037.399902</ele>
        <time>2011-07-31T11:16:12Z</time>
      </trkpt>
      <trkpt lat="42.93271" lon="-0.44098">
        <ele>1034.515869</ele>
        <time>2011-07-31T11:16:27Z</time>
      </trkpt>
      <trkpt lat="42.93278" lon="-0.44105">
        <ele>1032.112549</ele>
        <time>2011-07-31T11:16:34Z</time>
      </trkpt>
      <trkpt lat="42.93285" lon="-0.44101">
        <ele>1029.228516</ele>
        <time>2011-07-31T11:16:40Z</time>
      </trkpt>
      <trkpt lat="42.93286" lon="-0.441">
        <ele>1028.748047</ele>
        <time>2011-07-31T11:16:41Z</time>
      </trkpt>
      <trkpt lat="42.93301" lon="-0.44092">
        <ele>1026.344727</ele>
        <time>2011-07-31T11:16:53Z</time>
      </trkpt>
      <trkpt lat="42.93312" lon="-0.4409">
        <ele>1023.460938</ele>
        <time>2011-07-31T11:17:01Z</time>
      </trkpt>
      <trkpt lat="42.93315" lon="-0.44093">
        <ele>1021.538086</ele>
        <time>2011-07-31T11:17:07Z</time>
      </trkpt>
      <trkpt lat="42.93326" lon="-0.44086">
        <ele>1018.17334</ele>
        <time>2011-07-31T11:17:22Z</time>
      </trkpt>
      <trkpt lat="42.93337" lon="-0.44083">
        <ele>1018.654053</ele>
        <time>2011-07-31T11:17:32Z</time>
      </trkpt>
      <trkpt lat="42.93352" lon="-0.44092">
        <ele>1017.692627</ele>
        <time>2011-07-31T11:17:47Z</time>
      </trkpt>
      <trkpt lat="42.93365" lon="-0.44083">
        <ele>1017.212158</ele>
        <time>2011-07-31T11:18:04Z</time>
      </trkpt>
      <trkpt lat="42.93373" lon="-0.44076">
        <ele>1015.289551</ele>
        <time>2011-07-31T11:18:19Z</time>
      </trkpt>
      <trkpt lat="42.93387" lon="-0.44071">
        <ele>1012.88623</ele>
        <time>2011-07-31T11:18:34Z</time>
      </trkpt>
      <trkpt lat="42.93406" lon="-0.44069">
        <ele>1009.041016</ele>
        <time>2011-07-31T11:18:54Z</time>
      </trkpt>
      <trkpt lat="42.93408" lon="-0.44067">
        <ele>1007.118408</ele>
        <time>2011-07-31T11:18:58Z</time>
      </trkpt>
      <trkpt lat="42.93422" lon="-0.44068">
        <ele>1003.753662</ele>
        <time>2011-07-31T11:19:13Z</time>
      </trkpt>
      <trkpt lat="42.93429" lon="-0.44063">
        <ele>1002.311523</ele>
        <time>2011-07-31T11:19:50Z</time>
      </trkpt>
      <trkpt lat="42.93433" lon="-0.44065">
        <ele>1000.38916</ele>
        <time>2011-07-31T11:19:59Z</time>
      </trkpt>
      <trkpt lat="42.9344" lon="-0.44061">
        <ele>998.466309</ele>
        <time>2011-07-31T11:20:13Z</time>
      </trkpt>
      <trkpt lat="42.93441" lon="-0.44059">
        <ele>995.58252</ele>
        <time>2011-07-31T11:20:26Z</time>
      </trkpt>
      <trkpt lat="42.93434" lon="-0.44064">
        <ele>993.179199</ele>
        <time>2011-07-31T11:20:49Z</time>
      </trkpt>
      <trkpt lat="42.93437" lon="-0.44062">
        <ele>989.814697</ele>
        <time>2011-07-31T11:20:59Z</time>
      </trkpt>
      <trkpt lat="42.93449" lon="-0.44054">
        <ele>986.449951</ele>
        <time>2011-07-31T11:21:17Z</time>
      </trkpt>
      <trkpt lat="42.93449" lon="-0.44054">
        <ele>986.449951</ele>
        <time>2011-07-31T11:21:18Z</time>
      </trkpt>
      <trkpt lat="42.93462" lon="-0.44064">
        <ele>986.449951</ele>
        <time>2011-07-31T11:22:13Z</time>
      </trkpt>
      <trkpt lat="42.93469" lon="-0.44078">
        <ele>987.411133</ele>
        <time>2011-07-31T11:22:43Z</time>
      </trkpt>
      <trkpt lat="42.93447" lon="-0.44067">
        <ele>987.411133</ele>
        <time>2011-07-31T11:23:36Z</time>
      </trkpt>
      <trkpt lat="42.93444" lon="-0.44065">
        <ele>988.853516</ele>
        <time>2011-07-31T11:23:38Z</time>
      </trkpt>
      <trkpt lat="42.93447" lon="-0.44037">
        <ele>987.891846</ele>
        <time>2011-07-31T11:24:12Z</time>
      </trkpt>
      <trkpt lat="42.93448" lon="-0.44043">
        <ele>987.891846</ele>
        <time>2011-07-31T11:24:20Z</time>
      </trkpt>
      <trkpt lat="42.93464" lon="-0.4406">
        <ele>988.853516</ele>
        <time>2011-07-31T11:24:36Z</time>
      </trkpt>
      <trkpt lat="42.93487" lon="-0.4405">
        <ele>991.256592</ele>
        <time>2011-07-31T11:24:55Z</time>
      </trkpt>
      <trkpt lat="42.93511" lon="-0.4404">
        <ele>991.256592</ele>
        <time>2011-07-31T11:25:17Z</time>
      </trkpt>
      <trkpt lat="42.93522" lon="-0.44031">
        <ele>991.737305</ele>
        <time>2011-07-31T11:25:32Z</time>
      </trkpt>
      <trkpt lat="42.93562" lon="-0.44006">
        <ele>990.775879</ele>
        <time>2011-07-31T11:26:23Z</time>
      </trkpt>
      <trkpt lat="42.93583" lon="-0.44">
        <ele>989.814697</ele>
        <time>2011-07-31T11:26:40Z</time>
      </trkpt>
      <trkpt lat="42.93589" lon="-0.43988">
        <ele>985.969238</ele>
        <time>2011-07-31T11:26:59Z</time>
      </trkpt>
      <trkpt lat="42.93609" lon="-0.4398">
        <ele>982.604736</ele>
        <time>2011-07-31T11:27:25Z</time>
      </trkpt>
      <trkpt lat="42.93623" lon="-0.43968">
        <ele>979.23999</ele>
        <time>2011-07-31T11:27:48Z</time>
      </trkpt>
      <trkpt lat="42.93624" lon="-0.43968">
        <ele>979.23999</ele>
        <time>2011-07-31T11:27:49Z</time>
      </trkpt>
      <trkpt lat="42.93644" lon="-0.43962">
        <ele>977.798096</ele>
        <time>2011-07-31T11:28:01Z</time>
      </trkpt>
      <trkpt lat="42.93659" lon="-0.43957">
        <ele>976.356201</ele>
        <time>2011-07-31T11:28:19Z</time>
      </trkpt>
      <trkpt lat="42.93693" lon="-0.43958">
        <ele>972.991699</ele>
        <time>2011-07-31T11:28:58Z</time>
      </trkpt>
      <trkpt lat="42.93698" lon="-0.43965">
        <ele>972.030273</ele>
        <time>2011-07-31T11:29:03Z</time>
      </trkpt>
      <trkpt lat="42.93701" lon="-0.43971">
        <ele>971.549316</ele>
        <time>2011-07-31T11:29:05Z</time>
      </trkpt>
      <trkpt lat="42.93719" lon="-0.43972">
        <ele>971.068848</ele>
        <time>2011-07-31T11:29:19Z</time>
      </trkpt>
      <trkpt lat="42.93725" lon="-0.43957">
        <ele>969.14624</ele>
        <time>2011-07-31T11:29:30Z</time>
      </trkpt>
      <trkpt lat="42.93731" lon="-0.43956">
        <ele>966.262207</ele>
        <time>2011-07-31T11:29:41Z</time>
      </trkpt>
      <trkpt lat="42.93756" lon="-0.43953">
        <ele>962.897705</ele>
        <time>2011-07-31T11:30:17Z</time>
      </trkpt>
      <trkpt lat="42.93775" lon="-0.43968">
        <ele>959.533203</ele>
        <time>2011-07-31T11:30:36Z</time>
      </trkpt>
      <trkpt lat="42.93786" lon="-0.43967">
        <ele>956.64917</ele>
        <time>2011-07-31T11:30:55Z</time>
      </trkpt>
      <trkpt lat="42.93795" lon="-0.4397">
        <ele>953.284424</ele>
        <time>2011-07-31T11:31:07Z</time>
      </trkpt>
      <trkpt lat="42.93811" lon="-0.43984">
        <ele>949.919922</ele>
        <time>2011-07-31T11:31:27Z</time>
      </trkpt>
      <trkpt lat="42.93819" lon="-0.43984">
        <ele>947.035889</ele>
        <time>2011-07-31T11:31:35Z</time>
      </trkpt>
      <trkpt lat="42.93831" lon="-0.43988">
        <ele>944.1521</ele>
        <time>2011-07-31T11:31:51Z</time>
      </trkpt>
      <trkpt lat="42.93838" lon="-0.43992">
        <ele>941.268066</ele>
        <time>2011-07-31T11:32:00Z</time>
      </trkpt>
      <trkpt lat="42.93848" lon="-0.44">
        <ele>937.90332</ele>
        <time>2011-07-31T11:32:17Z</time>
      </trkpt>
      <trkpt lat="42.93855" lon="-0.44005">
        <ele>935.019531</ele>
        <time>2011-07-31T11:32:28Z</time>
      </trkpt>
      <trkpt lat="42.93874" lon="-0.4402">
        <ele>932.616211</ele>
        <time>2011-07-31T11:32:46Z</time>
      </trkpt>
      <trkpt lat="42.93881" lon="-0.44023">
        <ele>930.693604</ele>
        <time>2011-07-31T11:33:00Z</time>
      </trkpt>
      <trkpt lat="42.93888" lon="-0.44023">
        <ele>927.80957</ele>
        <time>2011-07-31T11:33:12Z</time>
      </trkpt>
      <trkpt lat="42.93893" lon="-0.44021">
        <ele>927.80957</ele>
        <time>2011-07-31T11:33:23Z</time>
      </trkpt>
      <trkpt lat="42.93897" lon="-0.44025">
        <ele>924.925781</ele>
        <time>2011-07-31T11:33:59Z</time>
      </trkpt>
      <trkpt lat="42.939" lon="-0.4403">
        <ele>924.445068</ele>
        <time>2011-07-31T11:34:08Z</time>
      </trkpt>
      <trkpt lat="42.93909" lon="-0.44041">
        <ele>921.080322</ele>
        <time>2011-07-31T11:34:23Z</time>
      </trkpt>
      <trkpt lat="42.93911" lon="-0.44044">
        <ele>919.638428</ele>
        <time>2011-07-31T11:34:34Z</time>
      </trkpt>
      <trkpt lat="42.93902" lon="-0.44047">
        <ele>918.196289</ele>
        <time>2011-07-31T11:34:46Z</time>
      </trkpt>
      <trkpt lat="42.93914" lon="-0.44052">
        <ele>915.793213</ele>
        <time>2011-07-31T11:34:58Z</time>
      </trkpt>
      <trkpt lat="42.93924" lon="-0.44055">
        <ele>913.389893</ele>
        <time>2011-07-31T11:35:10Z</time>
      </trkpt>
      <trkpt lat="42.93932" lon="-0.44055">
        <ele>912.428467</ele>
        <time>2011-07-31T11:35:18Z</time>
      </trkpt>
      <trkpt lat="42.93945" lon="-0.44058">
        <ele>910.025146</ele>
        <time>2011-07-31T11:35:33Z</time>
      </trkpt>
      <trkpt lat="42.93958" lon="-0.44063">
        <ele>906.6604</ele>
        <time>2011-07-31T11:35:44Z</time>
      </trkpt>
      <trkpt lat="42.93965" lon="-0.44063">
        <ele>903.776611</ele>
        <time>2011-07-31T11:35:52Z</time>
      </trkpt>
      <trkpt lat="42.93976" lon="-0.44068">
        <ele>900.892578</ele>
        <time>2011-07-31T11:36:04Z</time>
      </trkpt>
      <trkpt lat="42.93982" lon="-0.44068">
        <ele>897.528076</ele>
        <time>2011-07-31T11:36:12Z</time>
      </trkpt>
      <trkpt lat="42.93996" lon="-0.44071">
        <ele>894.644043</ele>
        <time>2011-07-31T11:36:24Z</time>
      </trkpt>
      <trkpt lat="42.94009" lon="-0.44067">
        <ele>891.76001</ele>
        <time>2011-07-31T11:36:35Z</time>
      </trkpt>
      <trkpt lat="42.94017" lon="-0.44063">
        <ele>888.395508</ele>
        <time>2011-07-31T11:36:49Z</time>
      </trkpt>
      <trkpt lat="42.94027" lon="-0.4406">
        <ele>885.031006</ele>
        <time>2011-07-31T11:37:02Z</time>
      </trkpt>
      <trkpt lat="42.94044" lon="-0.44049">
        <ele>881.66626</ele>
        <time>2011-07-31T11:37:22Z</time>
      </trkpt>
      <trkpt lat="42.94051" lon="-0.44036">
        <ele>880.224365</ele>
        <time>2011-07-31T11:37:33Z</time>
      </trkpt>
      <trkpt lat="42.94068" lon="-0.44028">
        <ele>877.821045</ele>
        <time>2011-07-31T11:37:47Z</time>
      </trkpt>
      <trkpt lat="42.94086" lon="-0.44017">
        <ele>874.456299</ele>
        <time>2011-07-31T11:38:07Z</time>
      </trkpt>
      <trkpt lat="42.94109" lon="-0.44004">
        <ele>872.052979</ele>
        <time>2011-07-31T11:38:28Z</time>
      </trkpt>
      <trkpt lat="42.94123" lon="-0.43996">
        <ele>871.091797</ele>
        <time>2011-07-31T11:38:43Z</time>
      </trkpt>
      <trkpt lat="42.94138" lon="-0.43994">
        <ele>868.688477</ele>
        <time>2011-07-31T11:38:59Z</time>
      </trkpt>
      <trkpt lat="42.94139" lon="-0.43995">
        <ele>869.169189</ele>
        <time>2011-07-31T11:39:00Z</time>
      </trkpt>
      <trkpt lat="42.94154" lon="-0.4399">
        <ele>866.765869</ele>
        <time>2011-07-31T11:39:16Z</time>
      </trkpt>
      <trkpt lat="42.94183" lon="-0.43969">
        <ele>870.130371</ele>
        <time>2011-07-31T11:39:48Z</time>
      </trkpt>
      <trkpt lat="42.94208" lon="-0.43968">
        <ele>869.649902</ele>
        <time>2011-07-31T11:40:17Z</time>
      </trkpt>
      <trkpt lat="42.94215" lon="-0.43968">
        <ele>869.169189</ele>
        <time>2011-07-31T11:40:36Z</time>
      </trkpt>
      <trkpt lat="42.94215" lon="-0.43973">
        <ele>868.207764</ele>
        <time>2011-07-31T11:41:58Z</time>
      </trkpt>
      <trkpt lat="42.94215" lon="-0.4397">
        <ele>865.323975</ele>
        <time>2011-07-31T11:43:59Z</time>
      </trkpt>
      <trkpt lat="42.94215" lon="-0.4397">
        <ele>866.285156</ele>
        <time>2011-07-31T11:47:58Z</time>
      </trkpt>
      <trkpt lat="42.94217" lon="-0.43978">
        <ele>863.401367</ele>
        <time>2011-07-31T11:51:46Z</time>
      </trkpt>
      <trkpt lat="42.94214" lon="-0.4397">
        <ele>862.920654</ele>
        <time>2011-07-31T12:02:28Z</time>
      </trkpt>
      <trkpt lat="42.94213" lon="-0.43968">
        <ele>860.036621</ele>
        <time>2011-07-31T12:15:42Z</time>
      </trkpt>
      <trkpt lat="42.9422" lon="-0.43967">
        <ele>856.671875</ele>
        <time>2011-07-31T12:22:08Z</time>
      </trkpt>
      <trkpt lat="42.94213" lon="-0.43974">
        <ele>852.82666</ele>
        <time>2011-07-31T12:24:57Z</time>
      </trkpt>
      <trkpt lat="42.94213" lon="-0.43973">
        <ele>858.114014</ele>
        <time>2011-07-31T12:24:58Z</time>
      </trkpt>
      <trkpt lat="42.94214" lon="-0.43975">
        <ele>854.749268</ele>
        <time>2011-07-31T12:25:11Z</time>
      </trkpt>
      <trkpt lat="42.94213" lon="-0.43975">
        <ele>859.555908</ele>
        <time>2011-07-31T12:25:12Z</time>
      </trkpt>
      <trkpt lat="42.94214" lon="-0.43974">
        <ele>858.114014</ele>
        <time>2011-07-31T12:25:13Z</time>
      </trkpt>
      <trkpt lat="42.94231" lon="-0.43968">
        <ele>856.671875</ele>
        <time>2011-07-31T12:25:43Z</time>
      </trkpt>
      <trkpt lat="42.94228" lon="-0.43966">
        <ele>856.671875</ele>
        <time>2011-07-31T12:26:05Z</time>
      </trkpt>
      <trkpt lat="42.9422" lon="-0.43969">
        <ele>853.788086</ele>
        <time>2011-07-31T12:30:44Z</time>
      </trkpt>
    </trkseg>
  </trk>
  <trk>
    <name><![CDATA[ACTIVE LOG 008]]></name>
    <trkseg>
      <trkpt lat="42.94411" lon="-0.43876">
        <ele>792.263672</ele>
        <time>2011-07-31T12:48:29Z</time>
      </trkpt>
      <trkpt lat="42.94466" lon="-0.43879">
        <ele>786.976318</ele>
        <time>2011-07-31T12:48:46Z</time>
      </trkpt>
      <trkpt lat="42.94466" lon="-0.43879">
        <ele>781.689209</ele>
        <time>2011-07-31T12:48:48Z</time>
      </trkpt>
      <trkpt lat="42.94465" lon="-0.4388">
        <ele>778.805176</ele>
        <time>2011-07-31T12:48:49Z</time>
      </trkpt>
      <trkpt lat="42.94463" lon="-0.43881">
        <ele>774.959961</ele>
        <time>2011-07-31T12:48:51Z</time>
      </trkpt>
      <trkpt lat="42.9446" lon="-0.43883">
        <ele>770.634033</ele>
        <time>2011-07-31T12:48:53Z</time>
      </trkpt>
      <trkpt lat="42.94458" lon="-0.43884">
        <ele>767.269531</ele>
        <time>2011-07-31T12:48:55Z</time>
      </trkpt>
      <trkpt lat="42.94454" lon="-0.43884">
        <ele>763.424072</ele>
        <time>2011-07-31T12:48:58Z</time>
      </trkpt>
      <trkpt lat="42.94432" lon="-0.43885">
        <ele>760.059326</ele>
        <time>2011-07-31T12:49:23Z</time>
      </trkpt>
      <trkpt lat="42.94477" lon="-0.43904">
        <ele>757.65625</ele>
        <time>2011-07-31T12:50:18Z</time>
      </trkpt>
      <trkpt lat="42.94487" lon="-0.43907">
        <ele>757.65625</ele>
        <time>2011-07-31T12:50:30Z</time>
      </trkpt>
      <trkpt lat="42.94497" lon="-0.43907">
        <ele>756.694824</ele>
        <time>2011-07-31T12:50:45Z</time>
      </trkpt>
      <trkpt lat="42.94506" lon="-0.43906">
        <ele>757.175537</ele>
        <time>2011-07-31T12:50:54Z</time>
      </trkpt>
      <trkpt lat="42.94532" lon="-0.43928">
        <ele>758.136963</ele>
        <time>2011-07-31T12:51:54Z</time>
      </trkpt>
      <trkpt lat="42.94538" lon="-0.4393">
        <ele>759.098145</ele>
        <time>2011-07-31T12:52:15Z</time>
      </trkpt>
      <trkpt lat="42.9453" lon="-0.43948">
        <ele>759.098145</ele>
        <time>2011-07-31T12:52:58Z</time>
      </trkpt>
      <trkpt lat="42.9453" lon="-0.43949">
        <ele>758.617432</ele>
        <time>2011-07-31T12:52:59Z</time>
      </trkpt>
      <trkpt lat="42.94535" lon="-0.4396">
        <ele>758.617432</ele>
        <time>2011-07-31T12:53:12Z</time>
      </trkpt>
      <trkpt lat="42.94533" lon="-0.43949">
        <ele>759.578857</ele>
        <time>2011-07-31T12:53:26Z</time>
      </trkpt>
      <trkpt lat="42.94532" lon="-0.43952">
        <ele>760.059326</ele>
        <time>2011-07-31T12:53:46Z</time>
      </trkpt>
      <trkpt lat="42.94537" lon="-0.43956">
        <ele>760.540039</ele>
        <time>2011-07-31T12:54:15Z</time>
      </trkpt>
      <trkpt lat="42.9454" lon="-0.43958">
        <ele>761.982178</ele>
        <time>2011-07-31T12:54:36Z</time>
      </trkpt>
      <trkpt lat="42.94549" lon="-0.43966">
        <ele>761.020752</ele>
        <time>2011-07-31T12:54:58Z</time>
      </trkpt>
      <trkpt lat="42.9456" lon="-0.43977">
        <ele>760.540039</ele>
        <time>2011-07-31T12:55:18Z</time>
      </trkpt>
      <trkpt lat="42.94564" lon="-0.43985">
        <ele>760.059326</ele>
        <time>2011-07-31T12:55:31Z</time>
      </trkpt>
      <trkpt lat="42.94565" lon="-0.43987">
        <ele>759.098145</ele>
        <time>2011-07-31T12:55:48Z</time>
      </trkpt>
      <trkpt lat="42.94562" lon="-0.43989">
        <ele>759.578857</ele>
        <time>2011-07-31T12:56:08Z</time>
      </trkpt>
      <trkpt lat="42.94569" lon="-0.44002">
        <ele>758.617432</ele>
        <time>2011-07-31T12:56:34Z</time>
      </trkpt>
      <trkpt lat="42.94584" lon="-0.44014">
        <ele>757.175537</ele>
        <time>2011-07-31T12:57:01Z</time>
      </trkpt>
      <trkpt lat="42.94599" lon="-0.44025">
        <ele>754.772217</ele>
        <time>2011-07-31T12:57:32Z</time>
      </trkpt>
      <trkpt lat="42.94606" lon="-0.44036">
        <ele>754.291748</ele>
        <time>2011-07-31T12:57:49Z</time>
      </trkpt>
      <trkpt lat="42.94622" lon="-0.4405">
        <ele>751.888428</ele>
        <time>2011-07-31T12:58:12Z</time>
      </trkpt>
      <trkpt lat="42.94636" lon="-0.44057">
        <ele>749.004395</ele>
        <time>2011-07-31T12:58:40Z</time>
      </trkpt>
      <trkpt lat="42.94661" lon="-0.44056">
        <ele>746.120361</ele>
        <time>2011-07-31T12:59:10Z</time>
      </trkpt>
      <trkpt lat="42.9469" lon="-0.44067">
        <ele>742.275146</ele>
        <time>2011-07-31T12:59:35Z</time>
      </trkpt>
      <trkpt lat="42.94697" lon="-0.44062">
        <ele>741.794434</ele>
        <time>2011-07-31T12:59:53Z</time>
      </trkpt>
      <trkpt lat="42.94702" lon="-0.44055">
        <ele>741.313721</ele>
        <time>2011-07-31T13:00:08Z</time>
      </trkpt>
      <trkpt lat="42.9471" lon="-0.44047">
        <ele>737.949219</ele>
        <time>2011-07-31T13:00:28Z</time>
      </trkpt>
      <trkpt lat="42.94748" lon="-0.44045">
        <ele>734.584717</ele>
        <time>2011-07-31T13:01:11Z</time>
      </trkpt>
      <trkpt lat="42.94764" lon="-0.44041">
        <ele>733.142578</ele>
        <time>2011-07-31T13:01:35Z</time>
      </trkpt>
      <trkpt lat="42.94768" lon="-0.44038">
        <ele>732.662109</ele>
        <time>2011-07-31T13:01:46Z</time>
      </trkpt>
      <trkpt lat="42.94776" lon="-0.44033">
        <ele>730.739258</ele>
        <time>2011-07-31T13:01:58Z</time>
      </trkpt>
      <trkpt lat="42.9479" lon="-0.44036">
        <ele>730.258545</ele>
        <time>2011-07-31T13:02:11Z</time>
      </trkpt>
      <trkpt lat="42.94799" lon="-0.44034">
        <ele>729.297119</ele>
        <time>2011-07-31T13:02:21Z</time>
      </trkpt>
      <trkpt lat="42.94811" lon="-0.44034">
        <ele>727.855225</ele>
        <time>2011-07-31T13:02:30Z</time>
      </trkpt>
      <trkpt lat="42.94821" lon="-0.44035">
        <ele>727.855225</ele>
        <time>2011-07-31T13:02:41Z</time>
      </trkpt>
      <trkpt lat="42.94836" lon="-0.44034">
        <ele>726.41333</ele>
        <time>2011-07-31T13:02:52Z</time>
      </trkpt>
      <trkpt lat="42.94842" lon="-0.4403">
        <ele>725.451904</ele>
        <time>2011-07-31T13:03:01Z</time>
      </trkpt>
      <trkpt lat="42.94847" lon="-0.44023">
        <ele>724.490723</ele>
        <time>2011-07-31T13:03:11Z</time>
      </trkpt>
      <trkpt lat="42.94855" lon="-0.4402">
        <ele>722.568115</ele>
        <time>2011-07-31T13:03:20Z</time>
      </trkpt>
      <trkpt lat="42.94859" lon="-0.44016">
        <ele>721.606689</ele>
        <time>2011-07-31T13:03:28Z</time>
      </trkpt>
      <trkpt lat="42.94875" lon="-0.44004">
        <ele>720.164795</ele>
        <time>2011-07-31T13:03:50Z</time>
      </trkpt>
      <trkpt lat="42.94886" lon="-0.44002">
        <ele>719.684326</ele>
        <time>2011-07-31T13:04:01Z</time>
      </trkpt>
      <trkpt lat="42.94894" lon="-0.43999">
        <ele>718.7229</ele>
        <time>2011-07-31T13:04:10Z</time>
      </trkpt>
      <trkpt lat="42.94909" lon="-0.43992">
        <ele>717.761475</ele>
        <time>2011-07-31T13:04:26Z</time>
      </trkpt>
      <trkpt lat="42.94919" lon="-0.43991">
        <ele>715.838867</ele>
        <time>2011-07-31T13:04:35Z</time>
      </trkpt>
      <trkpt lat="42.94933" lon="-0.43988">
        <ele>712.954834</ele>
        <time>2011-07-31T13:04:48Z</time>
      </trkpt>
      <trkpt lat="42.94945" lon="-0.43986">
        <ele>712.474121</ele>
        <time>2011-07-31T13:05:00Z</time>
      </trkpt>
      <trkpt lat="42.94958" lon="-0.43986">
        <ele>711.032227</ele>
        <time>2011-07-31T13:05:11Z</time>
      </trkpt>
      <trkpt lat="42.94967" lon="-0.4398">
        <ele>709.109619</ele>
        <time>2011-07-31T13:05:22Z</time>
      </trkpt>
      <trkpt lat="42.9498" lon="-0.43974">
        <ele>705.745117</ele>
        <time>2011-07-31T13:05:37Z</time>
      </trkpt>
      <trkpt lat="42.94995" lon="-0.43967">
        <ele>704.303223</ele>
        <time>2011-07-31T13:05:53Z</time>
      </trkpt>
      <trkpt lat="42.95011" lon="-0.43963">
        <ele>701.419189</ele>
        <time>2011-07-31T13:06:09Z</time>
      </trkpt>
      <trkpt lat="42.95031" lon="-0.43955">
        <ele>700.458008</ele>
        <time>2011-07-31T13:06:28Z</time>
      </trkpt>
      <trkpt lat="42.95047" lon="-0.43948">
        <ele>699.977051</ele>
        <time>2011-07-31T13:06:44Z</time>
      </trkpt>
      <trkpt lat="42.9505" lon="-0.43961">
        <ele>698.534912</ele>
        <time>2011-07-31T13:07:03Z</time>
      </trkpt>
      <trkpt lat="42.95035" lon="-0.43979">
        <ele>696.612549</ele>
        <time>2011-07-31T13:07:24Z</time>
      </trkpt>
      <trkpt lat="42.95025" lon="-0.43987">
        <ele>695.17041</ele>
        <time>2011-07-31T13:07:36Z</time>
      </trkpt>
      <trkpt lat="42.9501" lon="-0.44">
        <ele>694.689697</ele>
        <time>2011-07-31T13:07:48Z</time>
      </trkpt>
      <trkpt lat="42.94993" lon="-0.44022">
        <ele>693.247803</ele>
        <time>2011-07-31T13:08:12Z</time>
      </trkpt>
      <trkpt lat="42.94978" lon="-0.44036">
        <ele>692.767334</ele>
        <time>2011-07-31T13:08:29Z</time>
      </trkpt>
      <trkpt lat="42.94964" lon="-0.44057">
        <ele>691.805908</ele>
        <time>2011-07-31T13:08:53Z</time>
      </trkpt>
      <trkpt lat="42.94956" lon="-0.44067">
        <ele>691.325195</ele>
        <time>2011-07-31T13:09:04Z</time>
      </trkpt>
      <trkpt lat="42.94942" lon="-0.44093">
        <ele>689.402588</ele>
        <time>2011-07-31T13:09:27Z</time>
      </trkpt>
      <trkpt lat="42.94939" lon="-0.4412">
        <ele>688.441406</ele>
        <time>2011-07-31T13:09:46Z</time>
      </trkpt>
      <trkpt lat="42.94939" lon="-0.44127">
        <ele>687.960693</ele>
        <time>2011-07-31T13:09:51Z</time>
      </trkpt>
      <trkpt lat="42.94947" lon="-0.44143">
        <ele>686.999268</ele>
        <time>2011-07-31T13:10:04Z</time>
      </trkpt>
      <trkpt lat="42.94956" lon="-0.44147">
        <ele>686.518799</ele>
        <time>2011-07-31T13:10:14Z</time>
      </trkpt>
      <trkpt lat="42.94962" lon="-0.44139">
        <ele>685.557373</ele>
        <time>2011-07-31T13:10:26Z</time>
      </trkpt>
      <trkpt lat="42.94969" lon="-0.44133">
        <ele>684.596191</ele>
        <time>2011-07-31T13:10:35Z</time>
      </trkpt>
      <trkpt lat="42.94974" lon="-0.44129">
        <ele>684.115479</ele>
        <time>2011-07-31T13:10:40Z</time>
      </trkpt>
      <trkpt lat="42.94986" lon="-0.44121">
        <ele>682.67334</ele>
        <time>2011-07-31T13:10:55Z</time>
      </trkpt>
      <trkpt lat="42.94993" lon="-0.44109">
        <ele>680.750732</ele>
        <time>2011-07-31T13:11:10Z</time>
      </trkpt>
      <trkpt lat="42.95005" lon="-0.44091">
        <ele>679.308594</ele>
        <time>2011-07-31T13:11:33Z</time>
      </trkpt>
      <trkpt lat="42.95011" lon="-0.44087">
        <ele>678.347412</ele>
        <time>2011-07-31T13:11:39Z</time>
      </trkpt>
      <trkpt lat="42.95014" lon="-0.44068">
        <ele>678.347412</ele>
        <time>2011-07-31T13:11:52Z</time>
      </trkpt>
      <trkpt lat="42.95021" lon="-0.44058">
        <ele>677.38623</ele>
        <time>2011-07-31T13:12:03Z</time>
      </trkpt>
      <trkpt lat="42.95031" lon="-0.44052">
        <ele>677.38623</ele>
        <time>2011-07-31T13:12:14Z</time>
      </trkpt>
      <trkpt lat="42.95041" lon="-0.44043">
        <ele>676.424805</ele>
        <time>2011-07-31T13:12:25Z</time>
      </trkpt>
      <trkpt lat="42.95048" lon="-0.44038">
        <ele>676.424805</ele>
        <time>2011-07-31T13:12:34Z</time>
      </trkpt>
      <trkpt lat="42.95062" lon="-0.44033">
        <ele>674.98291</ele>
        <time>2011-07-31T13:12:47Z</time>
      </trkpt>
      <trkpt lat="42.95073" lon="-0.44033">
        <ele>673.541016</ele>
        <time>2011-07-31T13:12:57Z</time>
      </trkpt>
      <trkpt lat="42.95089" lon="-0.44038">
        <ele>671.618164</ele>
        <time>2011-07-31T13:13:13Z</time>
      </trkpt>
      <trkpt lat="42.951" lon="-0.44036">
        <ele>668.734375</ele>
        <time>2011-07-31T13:13:29Z</time>
      </trkpt>
      <trkpt lat="42.9511" lon="-0.44032">
        <ele>667.292236</ele>
        <time>2011-07-31T13:13:40Z</time>
      </trkpt>
      <trkpt lat="42.95116" lon="-0.44023">
        <ele>665.369629</ele>
        <time>2011-07-31T13:13:50Z</time>
      </trkpt>
      <trkpt lat="42.95123" lon="-0.4401">
        <ele>663.92749</ele>
        <time>2011-07-31T13:14:02Z</time>
      </trkpt>
      <trkpt lat="42.95131" lon="-0.43997">
        <ele>662.966309</ele>
        <time>2011-07-31T13:14:19Z</time>
      </trkpt>
      <trkpt lat="42.95146" lon="-0.43996">
        <ele>662.966309</ele>
        <time>2011-07-31T13:14:30Z</time>
      </trkpt>
      <trkpt lat="42.95159" lon="-0.43997">
        <ele>662.966309</ele>
        <time>2011-07-31T13:14:42Z</time>
      </trkpt>
      <trkpt lat="42.95168" lon="-0.43997">
        <ele>662.485596</ele>
        <time>2011-07-31T13:14:54Z</time>
      </trkpt>
      <trkpt lat="42.95162" lon="-0.44001">
        <ele>662.966309</ele>
        <time>2011-07-31T13:15:13Z</time>
      </trkpt>
      <trkpt lat="42.95158" lon="-0.44005">
        <ele>662.485596</ele>
        <time>2011-07-31T13:15:32Z</time>
      </trkpt>
      <trkpt lat="42.95173" lon="-0.43995">
        <ele>662.485596</ele>
        <time>2011-07-31T13:15:48Z</time>
      </trkpt>
      <trkpt lat="42.95184" lon="-0.43987">
        <ele>660.562988</ele>
        <time>2011-07-31T13:16:00Z</time>
      </trkpt>
      <trkpt lat="42.95192" lon="-0.43975">
        <ele>660.082275</ele>
        <time>2011-07-31T13:16:12Z</time>
      </trkpt>
      <trkpt lat="42.95203" lon="-0.43972">
        <ele>659.601807</ele>
        <time>2011-07-31T13:16:32Z</time>
      </trkpt>
      <trkpt lat="42.95212" lon="-0.4397">
        <ele>658.640381</ele>
        <time>2011-07-31T13:16:45Z</time>
      </trkpt>
      <trkpt lat="42.95225" lon="-0.43972">
        <ele>656.717773</ele>
        <time>2011-07-31T13:17:11Z</time>
      </trkpt>
      <trkpt lat="42.95237" lon="-0.43974">
        <ele>653.833984</ele>
        <time>2011-07-31T13:17:41Z</time>
      </trkpt>
      <trkpt lat="42.95249" lon="-0.43984">
        <ele>652.872559</ele>
        <time>2011-07-31T13:18:04Z</time>
      </trkpt>
      <trkpt lat="42.9525" lon="-0.44001">
        <ele>653.353271</ele>
        <time>2011-07-31T13:18:18Z</time>
      </trkpt>
      <trkpt lat="42.95243" lon="-0.44014">
        <ele>653.353271</ele>
        <time>2011-07-31T13:18:38Z</time>
      </trkpt>
      <trkpt lat="42.95241" lon="-0.44015">
        <ele>654.314697</ele>
        <time>2011-07-31T13:18:58Z</time>
      </trkpt>
      <trkpt lat="42.95243" lon="-0.44015">
        <ele>654.795166</ele>
        <time>2011-07-31T13:19:33Z</time>
      </trkpt>
      <trkpt lat="42.95241" lon="-0.44011">
        <ele>654.314697</ele>
        <time>2011-07-31T13:20:31Z</time>
      </trkpt>
    </trkseg>
  </trk>
</gpx>